Palmdale Regional,USAF Plant 42 Airport Palmdale US
ICAO: KPMD
IATA: PMD
Category: Medium
Scheduled Services: Yes

Elevation: 2543 ft
TransAlt. 18000 ft.

Airport Communications:
JOSHUA APP/DEP:124.55
ASOS:118.275
CTAF:123.7
GND:121.9
TWR:123.7

KPMD Zoom In..

If you have problems with the map follow the link
https://www.worldairports.se/pages/airport.php?
ICAO=KPMD

Runways:

(A) RW 04 length 12001 ft width 150 ft
---- / hdg 37

(B) RW 07 length 12002 ft width 200 ft
---- / hdg 71

(C) RW 22 length 12001 ft width 150 ft
---- / hdg 217

(D) RW 25 length 12002 ft width 200 ft
ILS 110.70 / hdg 251

Location; KPMD
Day. 13 / Time. 11.53 Zulu
* Altimeter: 30.20
* Temperature: 08° c. 46.4°f.
* Wind from: 160° Speed 04 kn.
Dewpoint: 04° c.
Visibility: 10 Statute Miles.
Clouds: Clear (automated report).

KPMD 131153Z AUTO 16004KT 10SM CLR 08/04 A3020 RMK AO2 SLP219 T00780044 10111 20072 58004


Wind From 160°
Speed 04 kn.

 
 
jpsmedia worldairports.se 2019   terms of use